Terminal Aerodrome Forecast
Issued by NWS

Home | Current Version | Previous Version | Graphics & Text | Print | Product List | Glossary On
Versions: 1 2 3 4 5 6 7 8 9 10 11 12 13 14 15
842
FTUS42 KMHX 300556
TAFISO
TAF
KISO 300556Z 3006/0106 20008KT P6SM SCT020 BKN050
     FM300800 19008KT 5SM BR SCT010 BKN020
     FM301500 20012G24KT P6SM BKN040
     FM010300 21012G22KT 5SM SHRA SCT010 BKN025
      AMD LTD TO VIS AND WIND=

USA.gov is the U.S. government's official web portal to all federal, state and local government web resources and services.